Time;durP1;ratioP1;P1;durP2;ratioP2;P2;SDS_P1;SDS_P2;PMS_P1;PMS_P2;Temp;Humidity;BMP_temperature;BMP_pressure;BME280_temperature;BME280_humidity;BME280_pressure;Samples;Min_cycle;Max_cycle;Signal;HPM_P1;HPM_P2
2022/10/02 00:01:56;;;;;;;16.80;3.38;;;;;;;13.56;84.19;100857.91;4180742;28;20037;-60
2022/10/02 00:04:01;;;;;;;10.93;2.85;;;;;;;13.57;83.54;100857.91;4179934;28;20049;-59
2022/10/02 00:06:11;;;;;;;15.30;2.40;;;;;;;13.59;84.13;100853.59;4180640;28;20052;-60
2022/10/02 00:08:18;;;;;;;11.10;2.80;;;;;;;13.60;83.84;100867.53;4180668;28;20072;-59
2022/10/02 00:10:32;;;;;;;8.20;2.35;;;;;;;13.63;83.65;100864.94;4180618;28;20075;-60
2022/10/02 00:12:36;;;;;;;7.18;2.25;;;;;;;13.66;83.36;100857.13;4180538;28;20549;-60
2022/10/02 00:14:41;;;;;;;10.52;2.38;;;;;;;13.63;83.10;100861.44;4180000;28;20052;-60
2022/10/02 00:16:48;;;;;;;11.35;2.72;;;;;;;13.60;83.05;100877.97;4180614;28;20049;-60
2022/10/02 00:18:54;;;;;;;13.77;3.33;;;;;;;13.55;83.56;100870.09;4180839;28;20051;-60
2022/10/02 00:21:04;;;;;;;11.63;3.22;;;;;;;13.56;83.54;100874.44;4180420;28;20041;-60
2022/10/02 00:23:13;;;;;;;9.85;3.00;;;;;;;13.63;83.57;100874.50;4162612;28;20049;-61
2022/10/02 00:25:26;;;;;;;10.90;2.60;;;;;;;13.67;83.80;100868.44;4180555;28;20132;-61
2022/10/02 00:27:49;;;;;;;9.63;2.42;;;;;;;13.66;82.82;100864.09;4180433;28;20037;-60
2022/10/02 00:29:54;;;;;;;12.60;3.17;;;;;;;13.67;82.69;100857.97;4180504;28;20050;-60
2022/10/02 00:32:11;;;;;;;9.95;3.08;;;;;;;13.65;83.14;100864.94;4180583;28;20076;-60
2022/10/02 00:34:25;;;;;;;9.50;2.45;;;;;;;13.59;83.45;100874.50;4179616;28;20041;-60
2022/10/02 00:36:43;;;;;;;8.57;2.67;;;;;;;13.53;83.79;100881.38;4162816;28;20107;-60
2022/10/02 00:38:54;;;;;;;7.00;2.75;;;;;;;13.50;83.72;100873.53;4180369;28;20064;-60
2022/10/02 00:41:24;;;;;;;8.13;2.40;;;;;;;13.54;83.66;100875.31;4180296;28;20120;-60
2022/10/02 00:43:33;;;;;;;11.85;2.35;;;;;;;13.56;83.50;100877.06;4145477;28;20085;-59
2022/10/02 00:46:06;;;;;;;7.47;1.67;;;;;;;13.55;83.01;100874.44;4162727;28;20075;-60
2022/10/02 00:48:28;;;;;;;8.10;1.98;;;;;;;13.58;83.49;100864.91;4179823;28;20057;-59
2022/10/02 00:50:42;;;;;;;6.85;1.63;;;;;;;13.54;83.35;100868.34;4180305;28;20049;-60
2022/10/02 00:53:06;;;;;;;6.45;2.25;;;;;;;13.51;82.75;100868.31;4180423;28;20410;-60
2022/10/02 00:55:32;;;;;;;6.53;1.77;;;;;;;13.58;82.63;100867.50;4179950;28;20037;-60
2022/10/02 00:57:46;;;;;;;11.02;2.20;;;;;;;13.61;82.75;100864.91;4162611;28;20117;-60
2022/10/02 01:00:01;;;;;;;8.25;1.73;;;;;;;13.64;82.50;100868.41;4180215;28;20044;-60
2022/10/02 01:02:11;;;;;;;12.52;2.85;;;;;;;13.65;82.71;100864.94;4182963;28;20564;-60
2022/10/02 01:04:19;;;;;;;7.78;1.95;;;;;;;13.65;82.47;100880.63;4182501;28;20056;-60
2022/10/02 01:06:26;;;;;;;15.98;2.38;;;;;;;13.67;82.56;100868.44;4183491;28;20049;-60
2022/10/02 01:08:31;;;;;;;7.68;1.95;;;;;;;13.69;82.85;100874.56;4165675;28;20578;-60
2022/10/02 01:10:35;;;;;;;11.43;2.42;;;;;;;13.70;82.32;100874.56;4165696;28;20052;-60
2022/10/02 01:12:39;;;;;;;5.93;2.05;;;;;;;13.70;82.59;100881.53;4183197;28;20098;-60
2022/10/02 01:14:41;;;;;;;3.83;1.48;;;;;;;13.73;82.29;100878.97;4164556;28;20116;-60
2022/10/02 01:16:45;;;;;;;6.28;2.40;;;;;;;13.79;81.48;100868.53;4183126;28;20455;-59
2022/10/02 01:18:48;;;;;;;5.95;1.73;;;;;;;13.81;81.92;100877.25;4165365;28;20473;-60
2022/10/02 01:20:54;;;;;;;5.43;1.75;;;;;;;13.83;81.70;100870.31;4182975;28;20120;-60
2022/10/02 01:23:05;;;;;;;12.13;2.22;;;;;;;13.85;81.84;100878.16;4183008;28;20041;-60
2022/10/02 01:25:09;;;;;;;6.53;1.75;;;;;;;13.81;81.95;100885.09;4164655;28;20095;-59
2022/10/02 01:27:12;;;;;;;8.77;2.33;;;;;;;13.78;81.80;100875.50;4182978;28;20406;-60
2022/10/02 01:29:15;;;;;;;8.40;1.95;;;;;;;13.76;82.31;100877.22;4182973;28;20045;-60
2022/10/02 01:31:18;;;;;;;8.18;1.77;;;;;;;13.75;81.75;100880.69;4165217;28;20037;-59
2022/10/02 01:33:22;;;;;;;9.57;2.40;;;;;;;13.75;82.52;100887.66;4164468;28;20135;-60
2022/10/02 01:35:30;;;;;;;11.75;2.63;;;;;;;13.75;82.26;100888.53;4183349;28;20479;-60
2022/10/02 01:37:37;;;;;;;8.23;2.03;;;;;;;13.78;82.52;100893.81;4182864;28;20041;-60
2022/10/02 01:39:40;;;;;;;9.73;2.10;;;;;;;13.82;82.35;100891.22;4182780;28;20410;-60
2022/10/02 01:41:45;;;;;;;8.05;2.30;;;;;;;13.82;81.63;100899.06;4165051;28;20136;-60
2022/10/02 01:43:51;;;;;;;8.98;2.22;;;;;;;13.81;81.89;100895.56;4182042;28;20040;-60
2022/10/02 01:46:17;;;;;;;9.02;2.60;;;;;;;13.94;81.75;100894.81;4182599;28;20166;-60
2022/10/02 01:48:33;;;;;;;7.28;1.60;;;;;;;13.83;81.60;100890.34;4164829;28;20041;-60
2022/10/02 01:50:48;;;;;;;6.30;1.48;;;;;;;13.76;82.09;100892.91;4182621;28;20045;-60
2022/10/02 01:53:01;;;;;;;6.63;1.80;;;;;;;13.79;81.24;100892.06;4164868;28;20052;-60
2022/10/02 01:55:22;;;;;;;13.18;3.42;;;;;;;13.80;82.12;100891.22;4181888;28;20075;-60
2022/10/02 01:57:39;;;;;;;9.00;2.20;;;;;;;13.82;81.62;100891.22;4182479;28;20233;-59
2022/10/02 01:59:53;;;;;;;5.90;1.75;;;;;;;13.86;81.49;100890.38;4164914;28;20051;-60
2022/10/02 02:02:08;;;;;;;8.82;2.38;;;;;;;13.84;82.02;100887.72;4182463;28;20033;-60
2022/10/02 02:04:21;;;;;;;8.93;2.28;;;;;;;13.77;81.97;100896.41;4181679;28;20123;-60
2022/10/02 02:06:30;;;;;;;6.38;2.08;;;;;;;13.79;81.74;100894.69;4182383;28;20070;-60
2022/10/02 02:08:36;;;;;;;8.63;2.30;;;;;;;13.78;81.66;100895.53;4164626;28;20089;-60
2022/10/02 02:10:48;;;;;;;7.85;1.95;;;;;;;13.80;82.28;100891.22;4182307;28;20045;-60
2022/10/02 02:13:00;;;;;;;8.38;2.65;;;;;;;13.74;82.44;100896.34;4181938;28;20483;-60
2022/10/02 02:15:09;;;;;;;6.60;2.40;;;;;;;13.70;82.59;100894.59;4181689;28;20076;-59
2022/10/02 02:17:16;;;;;;;10.27;2.35;;;;;;;13.74;82.60;100893.75;4182192;28;20037;-60
2022/10/02 02:19:28;;;;;;;7.72;2.30;;;;;;;13.76;82.82;100899.88;4182170;28;20051;-60
2022/10/02 02:21:34;;;;;;;5.65;1.90;;;;;;;13.75;83.30;100898.97;4182154;28;20033;-60
2022/10/02 02:23:41;;;;;;;8.57;2.40;;;;;;;13.74;83.54;100896.34;4181156;28;20098;-60
2022/10/02 02:25:48;;;;;;;6.05;2.08;;;;;;;13.72;83.41;100892.88;4182105;28;20037;-59
2022/10/02 02:27:57;;;;;;;9.18;2.72;;;;;;;13.76;83.13;100894.66;4182042;28;20380;-59
2022/10/02 02:30:04;;;;;;;9.70;2.65;;;;;;;13.87;83.04;100907.78;4164375;28;20160;-62
2022/10/02 02:32:09;;;;;;;13.43;3.30;;;;;;;13.92;82.35;100906.97;4181998;28;20155;-65
2022/10/02 02:34:16;;;;;;;3.88;1.88;;;;;;;13.82;83.03;100902.53;4181259;28;20082;-59
2022/10/02 02:36:23;;;;;;;6.88;2.67;;;;;;;13.78;82.95;100893.81;4164158;28;20049;-59
2022/10/02 02:38:30;;;;;;;9.02;2.53;;;;;;;13.79;83.42;100892.06;4164170;28;20096;-59
2022/10/02 02:40:39;;;;;;;12.85;2.35;;;;;;;13.79;83.01;100895.53;4181899;28;20514;-59
2022/10/02 02:42:46;;;;;;;6.18;2.47;;;;;;;13.86;82.81;100901.69;4181848;28;20040;-59
2022/10/02 02:44:55;;;;;;;3.95;2.38;;;;;;;13.81;82.42;100894.69;4181208;28;20529;-60
2022/10/02 02:47:03;;;;;;;7.47;2.20;;;;;;;13.80;82.99;100893.81;4163993;28;20053;-59
2022/10/02 02:49:11;;;;;;;12.52;3.88;;;;;;;13.75;83.37;100898.13;4181732;28;20053;-59
2022/10/02 02:51:18;;;;;;;16.08;3.08;;;;;;;13.74;83.22;100891.13;4164055;28;20064;-60
2022/10/02 02:53:25;;;;;;;13.10;3.47;;;;;;;13.85;82.86;100884.25;4180864;28;20467;-59
2022/10/02 02:55:33;;;;;;;11.23;3.75;;;;;;;13.86;82.67;100886.03;4181694;28;20451;-59
2022/10/02 02:57:43;;;;;;;12.30;2.42;;;;;;;13.79;82.68;100879.00;4181655;28;20391;-60
2022/10/02 02:59:51;;;;;;;9.95;3.30;;;;;;;13.84;83.21;100882.50;4163854;28;20431;-59
2022/10/02 03:01:54;;;;;;;15.18;4.45;;;;;;;13.78;83.07;100879.84;4163871;28;20037;-60
2022/10/02 03:03:57;;;;;;;8.15;3.20;;;;;;;13.80;82.96;100878.13;4180636;28;20043;-59
2022/10/02 03:06:05;;;;;;;8.57;2.25;;;;;;;13.81;82.80;100882.47;4181494;28;20526;-59
2022/10/02 03:08:17;;;;;;;7.88;2.90;;;;;;;13.76;83.50;100887.69;4181519;28;20041;-59
2022/10/02 03:10:30;;;;;;;7.68;2.25;;;;;;;13.77;83.10;100889.44;4181402;28;20045;-59
2022/10/02 03:12:46;;;;;;;9.10;2.65;;;;;;;13.80;83.23;100899.03;4181509;28;20513;-59
2022/10/02 03:15:07;;;;;;;15.50;3.28;;;;;;;13.80;83.15;100901.66;4146491;28;20496;-60
2022/10/02 03:17:23;;;;;;;13.05;3.10;;;;;;;13.85;82.72;100902.56;4181321;28;20036;-59
2022/10/02 03:19:40;;;;;;;9.02;3.25;;;;;;;13.84;82.88;100902.53;4181252;28;20041;-59
2022/10/02 03:21:54;;;;;;;8.88;2.50;;;;;;;13.82;82.54;100910.38;4163380;28;20050;-59
2022/10/02 03:24:06;;;;;;;15.45;3.38;;;;;;;13.85;82.79;100907.78;4162048;28;20041;-60
2022/10/02 03:26:17;;;;;;;10.75;2.70;;;;;;;13.79;82.59;100910.34;4181307;28;20037;-59
2022/10/02 03:28:27;;;;;;;11.80;3.20;;;;;;;13.88;83.07;100909.56;4181169;28;20125;-59
2022/10/02 03:30:54;;;;;;;9.65;2.50;;;;;;;13.82;82.95;100906.91;4181121;28;20494;-59
2022/10/02 03:32:59;;;;;;;12.13;2.67;;;;;;;13.74;83.06;100907.72;4163400;28;20037;-59
2022/10/02 03:35:05;;;;;;;15.27;3.55;;;;;;;13.76;83.29;100912.94;4180198;28;20098;-59
2022/10/02 03:37:08;;;;;;;8.50;2.28;;;;;;;13.70;84.03;100916.38;4180960;28;20041;-60
2022/10/02 03:39:11;;;;;;;11.93;2.45;;;;;;;13.69;84.08;100919.84;4180954;28;20065;-60
2022/10/02 03:41:27;;;;;;;6.78;2.47;;;;;;;13.71;84.05;100912.00;4181071;28;20139;-59
2022/10/02 03:43:30;;;;;;;10.55;3.28;;;;;;;13.76;83.53;100905.09;4180015;28;20483;-59
2022/10/02 03:45:33;;;;;;;12.07;2.90;;;;;;;13.80;83.79;100912.13;4180816;28;20048;-59
2022/10/02 03:47:55;;;;;;;7.10;2.25;;;;;;;13.86;83.42;100909.53;4180894;28;20487;-59
2022/10/02 03:49:58;;;;;;;8.73;2.55;;;;;;;13.90;83.10;100906.09;4180736;28;20037;-59
2022/10/02 03:52:01;;;;;;;14.23;3.08;;;;;;;13.86;82.82;100904.31;4180706;28;20029;-60
2022/10/02 03:54:12;;;;;;;12.27;2.83;;;;;;;13.88;83.11;100910.41;4179984;28;20495;-60
2022/10/02 03:56:26;;;;;;;10.48;3.20;;;;;;;13.91;82.84;100910.44;4180869;28;20483;-60
2022/10/02 03:58:29;;;;;;;13.05;2.88;;;;;;;13.84;82.70;100913.84;4180709;28;20045;-60
2022/10/02 04:00:35;;;;;;;11.05;2.25;;;;;;;13.87;83.54;100908.69;4180740;28;20043;-59
2022/10/02 04:02:42;;;;;;;10.10;2.33;;;;;;;13.90;82.64;100918.25;4180689;28;20120;-60
2022/10/02 04:04:53;;;;;;;9.90;3.15;;;;;;;13.89;83.02;100914.78;4179959;28;20037;-59
2022/10/02 04:07:03;;;;;;;12.10;2.97;;;;;;;13.91;83.31;100914.81;4180747;28;20209;-59
2022/10/02 04:09:12;;;;;;;12.00;2.58;;;;;;;13.86;82.83;100914.78;4180595;28;20048;-59
2022/10/02 04:11:22;;;;;;;9.27;2.70;;;;;;;13.84;83.28;100913.00;4180702;28;20037;-59
2022/10/02 04:13:31;;;;;;;10.23;2.47;;;;;;;13.82;83.80;100917.34;4162309;28;20046;-60
2022/10/02 04:15:44;;;;;;;8.10;2.58;;;;;;;13.85;83.62;100910.41;4180644;28;20132;-59
2022/10/02 04:17:50;;;;;;;10.15;2.78;;;;;;;13.85;83.74;100914.75;4162907;28;20042;-59
2022/10/02 04:20:05;;;;;;;10.25;2.17;;;;;;;13.80;83.88;100912.13;4180601;28;20076;-59
2022/10/02 04:22:14;;;;;;;10.20;2.65;;;;;;;13.81;83.46;100910.38;4162710;28;20049;-59
2022/10/02 04:24:22;;;;;;;11.07;2.42;;;;;;;13.76;83.37;100911.19;4179631;28;20521;-60
2022/10/02 04:26:30;;;;;;;10.93;2.67;;;;;;;13.76;84.05;100910.34;4180497;28;20040;-59
2022/10/02 04:28:38;;;;;;;8.27;2.00;;;;;;;13.82;83.05;100906.91;4162798;28;20569;-59
2022/10/02 04:30:41;;;;;;;8.95;2.30;;;;;;;13.83;83.78;100906.00;4180500;28;20069;-59
2022/10/02 04:32:45;;;;;;;5.85;2.20;;;;;;;13.79;82.95;100911.22;4180536;28;20037;-59
2022/10/02 04:34:47;;;;;;;9.13;2.40;;;;;;;13.77;83.02;100901.63;4180366;28;20045;-59
2022/10/02 04:37:10;;;;;;;8.32;2.35;;;;;;;13.74;83.08;100909.44;4165917;28;20538;-59
2022/10/02 04:39:29;;;;;;;12.20;2.67;;;;;;;13.67;83.50;100902.41;4166059;28;20052;-59
2022/10/02 04:41:51;;;;;;;6.57;2.33;;;;;;;13.66;84.48;100904.13;4183731;28;20402;-59
2022/10/02 04:44:07;;;;;;;11.60;2.30;;;;;;;13.64;84.00;100899.75;4165071;28;20069;-59
2022/10/02 04:46:22;;;;;;;12.43;2.20;;;;;;;13.68;84.04;100896.31;4183655;28;20556;-59
2022/10/02 04:48:45;;;;;;;11.07;2.22;;;;;;;13.73;84.11;100897.25;4183611;28;20045;-59
2022/10/02 04:50:56;;;;;;;9.88;2.30;;;;;;;13.79;83.65;100899.91;4165851;28;20103;-58
2022/10/02 04:53:20;;;;;;;8.93;1.95;;;;;;;13.79;83.85;100898.16;4183514;28;20041;-59
2022/10/02 04:55:50;;;;;;;11.98;3.58;;;;;;;13.87;83.63;100905.19;4183465;28;20040;-59
2022/10/02 04:58:14;;;;;;;6.90;2.25;;;;;;;13.78;83.45;100899.03;4183478;28;20041;-59
2022/10/02 05:00:20;;;;;;;12.20;2.67;;;;;;;13.77;83.92;100893.81;4183471;28;20065;-59
2022/10/02 05:02:34;;;;;;;11.05;2.78;;;;;;;13.77;84.13;100896.41;4183355;28;20079;-59
2022/10/02 05:04:54;;;;;;;11.85;2.45;;;;;;;13.70;83.80;100905.06;4164771;28;20045;-59
2022/10/02 05:07:11;;;;;;;9.07;2.15;;;;;;;13.74;84.26;100897.25;4183321;28;20224;-58
2022/10/02 05:09:24;;;;;;;12.43;2.65;;;;;;;13.70;84.35;100905.06;4183390;28;20037;-59
2022/10/02 05:11:52;;;;;;;8.82;2.47;;;;;;;13.67;84.17;100899.78;4183342;28;20067;-59
2022/10/02 05:14:14;;;;;;;10.57;2.38;;;;;;;13.68;83.98;100909.38;4182427;28;20029;-59
2022/10/02 05:16:36;;;;;;;8.48;2.53;;;;;;;13.66;84.14;100909.38;4183199;28;20041;-59
2022/10/02 05:18:55;;;;;;;8.70;2.65;;;;;;;13.70;83.99;100899.84;4165484;28;20049;-59
2022/10/02 05:21:17;;;;;;;8.00;2.33;;;;;;;13.72;84.24;100905.94;4165443;28;20042;-59
2022/10/02 05:23:36;;;;;;;10.65;2.85;;;;;;;13.80;84.04;100906.88;4182067;28;20037;-59
2022/10/02 05:26:09;;;;;;;10.15;2.17;;;;;;;13.74;83.94;100901.59;4183117;28;20045;-59
2022/10/02 05:28:32;;;;;;;9.50;2.55;;;;;;;13.71;84.33;100901.56;4182972;28;20068;-59
2022/10/02 05:30:45;;;;;;;10.85;3.22;;;;;;;13.84;83.31;100900.78;4182943;28;20048;-59
2022/10/02 05:33:13;;;;;;;13.98;3.15;;;;;;;13.81;83.16;100898.16;4182993;28;20529;-60
2022/10/02 05:35:33;;;;;;;10.55;3.05;;;;;;;13.78;84.11;100893.81;4182883;28;20037;-59
2022/10/02 05:37:52;;;;;;;11.15;3.00;;;;;;;13.81;83.64;100903.38;4165309;28;20455;-59
2022/10/02 05:40:02;;;;;;;18.30;3.75;;;;;;;13.83;83.99;100892.94;4182834;28;20072;-60
2022/10/02 05:42:19;;;;;;;10.35;2.45;;;;;;;13.90;83.26;100887.81;4182751;28;20091;-61
2022/10/02 05:44:26;;;;;;;11.85;3.13;;;;;;;13.78;83.87;100887.69;4181892;28;20124;-59
2022/10/02 05:46:33;;;;;;;10.48;3.20;;;;;;;13.81;83.70;100892.06;4182075;28;20104;-59
2022/10/02 05:48:41;;;;;;;8.30;2.25;;;;;;;13.76;83.39;100900.75;4182677;28;20094;-59
2022/10/02 05:50:49;;;;;;;10.45;2.47;;;;;;;13.76;84.16;100905.97;4182781;28;20212;-59
2022/10/02 05:52:57;;;;;;;13.13;3.17;;;;;;;13.79;83.80;100899.91;4182672;28;20111;-60
2022/10/02 05:55:07;;;;;;;9.75;3.28;;;;;;;13.82;83.65;100902.53;4181911;28;20572;-59
2022/10/02 05:57:20;;;;;;;13.70;3.08;;;;;;;13.84;83.53;100902.53;4182555;28;20380;-59
2022/10/02 05:59:28;;;;;;;8.85;2.00;;;;;;;13.84;83.42;100910.38;4182534;28;20037;-59
2022/10/02 06:01:36;;;;;;;6.75;2.40;;;;;;;13.83;83.62;100914.75;4182461;28;20033;-59
2022/10/02 06:03:43;;;;;;;10.90;2.33;;;;;;;13.80;83.78;100909.50;4181572;28;20107;-60
2022/10/02 06:05:55;;;;;;;8.77;2.70;;;;;;;13.82;83.63;100914.75;4182081;28;20051;-59
2022/10/02 06:08:02;;;;;;;7.20;2.47;;;;;;;13.81;83.81;100924.28;4182437;28;20041;-59
2022/10/02 06:10:10;;;;;;;10.48;2.78;;;;;;;13.76;83.60;100928.63;4182378;28;20071;-59
2022/10/02 06:12:21;;;;;;;11.73;3.20;;;;;;;13.79;83.75;100926.03;4182294;28;20067;-59
2022/10/02 06:14:30;;;;;;;12.05;2.95;;;;;;;13.72;84.12;100919.88;4181523;28;20091;-59
2022/10/02 06:16:39;;;;;;;9.32;2.33;;;;;;;13.78;83.76;100913.81;4182229;28;20069;-59
2022/10/02 06:18:49;;;;;;;10.00;2.28;;;;;;;13.77;84.21;100914.72;4182221;28;20069;-58
2022/10/02 06:20:56;;;;;;;6.60;2.30;;;;;;;13.74;83.90;100922.50;4182161;28;20036;-59
2022/10/02 06:23:04;;;;;;;11.15;3.35;;;;;;;13.72;84.10;100913.78;4164596;28;20550;-59
2022/10/02 06:25:16;;;;;;;12.38;2.40;;;;;;;13.77;84.33;100922.53;4181447;28;20037;-59
2022/10/02 06:27:31;;;;;;;11.88;2.72;;;;;;;13.80;84.50;100922.56;4182085;28;20048;-59
2022/10/02 06:29:41;;;;;;;13.65;3.65;;;;;;;13.85;83.66;100927.81;4182109;28;20037;-59
2022/10/02 06:31:51;;;;;;;9.73;1.77;;;;;;;13.84;83.59;100918.22;4182029;28;20040;-58
2022/10/02 06:33:54;;;;;;;14.98;3.92;;;;;;;13.83;84.04;100916.47;4181284;28;20041;-59
2022/10/02 06:36:22;;;;;;;10.68;2.55;;;;;;;13.86;83.58;100911.28;4181938;28;20045;-59
2022/10/02 06:38:40;;;;;;;15.05;3.22;;;;;;;13.74;84.33;100905.09;4181913;28;20068;-59
2022/10/02 06:40:46;;;;;;;13.73;3.13;;;;;;;13.71;84.26;100912.91;4147915;28;20567;-59
2022/10/02 06:42:57;;;;;;;8.73;2.20;;;;;;;13.76;84.42;100898.13;4181842;28;20044;-59
2022/10/02 06:45:10;;;;;;;14.15;3.00;;;;;;;13.76;84.43;100899.88;4146798;28;20041;-59
2022/10/02 06:47:24;;;;;;;15.98;3.17;;;;;;;13.80;84.51;100901.66;4163958;28;20585;-59
2022/10/02 06:49:39;;;;;;;13.85;2.90;;;;;;;13.80;84.49;100909.50;4181665;28;20098;-58
2022/10/02 06:51:54;;;;;;;8.40;2.72;;;;;;;13.80;84.41;100906.88;4181717;28;20079;-59
2022/10/02 06:54:15;;;;;;;10.38;3.00;;;;;;;13.83;84.79;100904.28;4181258;28;20069;-59
2022/10/02 06:56:37;;;;;;;11.82;2.90;;;;;;;13.89;83.78;100919.16;4164070;28;20046;-59
2022/10/02 06:58:55;;;;;;;12.02;3.03;;;;;;;13.82;83.86;100920.81;4180799;28;20517;-59
2022/10/02 07:01:08;;;;;;;10.13;2.35;;;;;;;13.74;84.37;100914.66;4181436;28;20454;-58
2022/10/02 07:03:22;;;;;;;7.65;2.33;;;;;;;13.69;84.84;100916.38;4180940;28;20405;-59
2022/10/02 07:05:48;;;;;;;7.57;2.28;;;;;;;13.68;84.91;100920.72;4181668;28;20491;-58
2022/10/02 07:08:00;;;;;;;12.45;2.65;;;;;;;13.72;85.24;100932.06;4181324;28;20095;-59
2022/10/02 07:10:17;;;;;;;12.00;2.53;;;;;;;13.72;85.49;100926.84;4181370;28;20278;-58
2022/10/02 07:12:40;;;;;;;9.98;3.67;;;;;;;13.78;85.58;100916.44;4181357;28;20049;-58
2022/10/02 07:15:02;;;;;;;8.10;2.42;;;;;;;13.86;84.36;100903.44;4177967;28;20127;-59
2022/10/02 07:17:22;;;;;;;7.95;2.58;;;;;;;13.81;84.61;100903.38;4163554;28;20518;-58
2022/10/02 07:19:49;;;;;;;8.15;2.10;;;;;;;13.75;85.21;100906.81;4163490;28;20140;-59
2022/10/02 07:22:04;;;;;;;8.32;2.15;;;;;;;13.71;84.80;100912.00;4181289;28;20041;-59
2022/10/02 07:24:44;;;;;;;8.43;2.10;;;;;;;13.75;85.15;100913.78;4180263;28;20060;-59
2022/10/02 07:26:52;;;;;;;10.07;3.28;;;;;;;13.76;85.36;100905.97;4163367;28;20105;-58
2022/10/02 07:29:03;;;;;;;8.32;2.67;;;;;;;13.82;84.90;100894.69;4181055;28;20087;-59
2022/10/02 07:31:20;;;;;;;4.95;1.83;;;;;;;13.82;84.82;100899.91;4181133;28;20479;-60
2022/10/02 07:33:36;;;;;;;6.05;1.83;;;;;;;13.81;84.63;100906.00;4162476;28;20492;-59
2022/10/02 07:35:47;;;;;;;9.52;2.53;;;;;;;13.80;85.05;100906.88;4180904;28;20041;-60
2022/10/02 07:38:02;;;;;;;6.43;2.00;;;;;;;13.81;85.10;100894.69;4147005;28;20056;-59
2022/10/02 07:40:12;;;;;;;;;;;;;;;13.65;85.59;100911.97;4181326;28;20453;-59
2022/10/02 07:42:54;;;;;;;7.00;2.03;;;;;;;13.73;85.15;100923.38;4180759;28;20011;-59
2022/10/02 07:45:27;;;;;;;7.07;2.05;;;;;;;13.67;85.43;100921.59;4179884;28;20044;-59
2022/10/02 07:47:47;;;;;;;8.57;2.33;;;;;;;13.74;85.79;100928.63;4180661;28;20049;-59
2022/10/02 07:49:55;;;;;;;8.40;2.08;;;;;;;13.73;85.06;100920.75;4180775;28;20079;-59
2022/10/02 07:52:06;;;;;;;5.05;2.00;;;;;;;13.69;85.95;100938.13;4180819;28;20457;-59
2022/10/02 07:54:26;;;;;;;9.18;2.83;;;;;;;13.77;85.59;100933.00;4180041;28;20041;-59
2022/10/02 07:56:30;;;;;;;5.35;2.15;;;;;;;13.78;85.85;100929.50;4181179;28;20041;-60
2022/10/02 07:58:39;;;;;;;8.30;1.80;;;;;;;13.77;84.85;100943.44;4180767;28;20068;-59
2022/10/02 08:00:47;;;;;;;7.80;2.28;;;;;;;13.79;85.63;100945.19;4180636;28;20041;-59
2022/10/02 08:02:54;;;;;;;7.78;2.08;;;;;;;13.77;85.11;100943.44;4180608;28;20571;-59
2022/10/02 08:05:02;;;;;;;5.40;2.10;;;;;;;13.83;84.88;100947.81;4162102;28;20531;-59
2022/10/02 08:07:06;;;;;;;5.95;1.80;;;;;;;13.76;85.57;100957.38;4180621;28;20384;-59
2022/10/02 08:09:14;;;;;;;4.97;1.70;;;;;;;13.71;85.89;100953.81;4180948;28;20471;-59
2022/10/02 08:11:21;;;;;;;4.65;1.45;;;;;;;13.69;86.33;100952.94;4180584;28;20530;-59
2022/10/02 08:13:31;;;;;;;6.28;1.70;;;;;;;13.73;85.68;100936.44;4179814;28;20048;-59
2022/10/02 08:15:37;;;;;;;5.13;1.60;;;;;;;13.74;85.55;100938.16;4162944;28;20042;-59
2022/10/02 08:17:48;;;;;;;7.35;1.70;;;;;;;13.81;85.34;100924.28;4180562;28;20051;-59
2022/10/02 08:19:57;;;;;;;4.28;1.55;;;;;;;13.86;85.25;100924.34;4180567;28;20071;-59
2022/10/02 08:22:03;;;;;;;3.42;1.65;;;;;;;13.86;85.12;100930.44;4180502;28;20041;-59
2022/10/02 08:24:13;;;;;;;3.58;1.48;;;;;;;13.87;84.79;100934.81;4161960;28;20186;-59
2022/10/02 08:26:21;;;;;;;2.65;1.38;;;;;;;13.87;85.16;100928.69;4180474;28;20045;-59
2022/10/02 08:28:29;;;;;;;4.45;1.63;;;;;;;13.83;85.45;100929.53;4180510;28;20033;-59
2022/10/02 08:30:34;;;;;;;1.63;1.08;;;;;;;13.89;85.07;100921.75;4162815;28;20587;-62
2022/10/02 08:32:37;;;;;;;6.70;1.80;;;;;;;13.87;85.48;100926.97;4180513;28;20071;-59
2022/10/02 08:34:42;;;;;;;3.58;1.52;;;;;;;13.88;84.74;100933.94;4179624;28;20044;-59
2022/10/02 08:37:15;;;;;;;2.45;1.00;;;;;;;13.89;85.07;100922.63;4180410;28;20044;-59
2022/10/02 08:39:38;;;;;;;4.63;1.75;;;;;;;13.85;85.23;100936.53;4160620;28;20049;-59
2022/10/02 08:42:07;;;;;;;2.55;1.23;;;;;;;13.82;85.17;100933.91;4180401;28;20120;-59
2022/10/02 08:44:50;;;;;;;2.45;1.30;;;;;;;13.85;85.48;100920.84;4162108;28;20505;-59
2022/10/02 08:47:35;;;;;;;4.55;1.55;;;;;;;13.84;84.93;100920.84;4180411;28;20045;-61
2022/10/02 08:50:13;;;;;;;3.75;1.63;;;;;;;13.78;85.68;100916.44;4124503;28;20115;-60
2022/10/02 08:52:55;;;;;;;1.85;1.25;;;;;;;13.78;85.77;100930.41;4162663;28;20061;-59
2022/10/02 08:55:42;;;;;;;3.22;1.45;;;;;;;13.79;85.50;100921.66;4155924;28;20096;-59
2022/10/02 08:58:20;;;;;;;0.85;0.73;;;;;;;13.84;85.48;100913.00;4113409;28;20043;-59
2022/10/02 09:00:25;;;;;;;4.03;1.35;;;;;;;13.89;84.79;100927.00;4113296;28;20532;-59
2022/10/02 09:02:52;;;;;;;;;;;;;;;13.79;84.82;100924.28;4129534;28;20515;-60
2022/10/02 09:05:28;;;;;;;7.35;2.38;;;;;;;13.90;84.89;100920.88;4179374;28;19921;-60
2022/10/02 09:08:09;;;;;;;4.93;1.83;;;;;;;13.86;85.26;100927.84;4162784;28;20107;-59
2022/10/02 09:10:47;;;;;;;3.15;1.40;;;;;;;13.86;85.83;100942.66;4140591;28;20110;-59
2022/10/02 09:13:23;;;;;;;2.22;1.23;;;;;;;13.73;86.17;100944.28;4162536;28;20515;-59
2022/10/02 09:15:42;;;;;;;3.15;1.15;;;;;;;13.68;85.58;100933.78;4179796;28;20119;-59
2022/10/02 09:17:59;;;;;;;4.90;1.60;;;;;;;13.72;86.16;100932.06;4162438;28;20048;-59
2022/10/02 09:20:34;;;;;;;4.10;1.17;;;;;;;13.71;86.30;100935.53;4162450;28;20041;-59
2022/10/02 09:23:06;;;;;;;4.40;1.92;;;;;;;13.70;86.58;100941.63;4147552;28;20042;-59
2022/10/02 09:25:32;;;;;;;2.78;1.52;;;;;;;13.79;86.69;100916.44;4164711;28;20084;-59
2022/10/02 09:28:10;;;;;;;5.18;1.65;;;;;;;13.83;86.26;100917.34;4183119;28;20091;-59
2022/10/02 09:30:23;;;;;;;9.07;1.67;;;;;;;13.87;86.03;100932.22;4157819;28;20448;-59
2022/10/02 09:32:55;;;;;;;1.92;1.10;;;;;;;13.90;85.89;100923.50;4182943;28;20127;-59
2022/10/02 09:35:33;;;;;;;2.30;1.13;;;;;;;13.87;86.18;100921.75;4182234;28;20526;-59
2022/10/02 09:38:13;;;;;;;2.15;1.05;;;;;;;13.86;86.19;100922.59;4165176;28;20037;-59
2022/10/02 09:40:40;;;;;;;2.20;0.90;;;;;;;13.88;86.33;100926.09;4150683;28;20103;-59
2022/10/02 09:43:21;;;;;;;1.80;1.20;;;;;;;13.97;85.60;100927.91;4182926;28;20461;-59
2022/10/02 09:45:44;;;;;;;2.38;1.27;;;;;;;13.96;85.82;100924.44;4154374;28;20057;-59
2022/10/02 09:48:26;;;;;;;3.70;1.13;;;;;;;14.09;85.36;100909.72;4165047;28;20081;-59
2022/10/02 09:51:04;;;;;;;2.35;0.80;;;;;;;14.03;85.20;100903.56;4165094;28;20491;-59
2022/10/02 09:53:39;;;;;;;2.17;1.30;;;;;;;13.98;85.08;100903.53;4182327;28;20045;-59
2022/10/02 09:56:29;;;;;;;1.10;0.98;;;;;;;13.93;85.29;100907.84;4164880;28;20041;-59
2022/10/02 09:59:01;;;;;;;1.65;1.20;;;;;;;13.90;85.82;100916.56;4115543;28;20043;-59
2022/10/02 10:01:29;;;;;;;3.97;1.02;;;;;;;13.85;85.65;100920.84;4148281;28;20394;-59
2022/10/02 10:03:54;;;;;;;1.77;0.85;;;;;;;13.90;85.37;100915.66;4181734;28;20048;-59
2022/10/02 10:06:21;;;;;;;2.20;1.20;;;;;;;13.95;85.88;100914.81;4182437;28;20079;-59
2022/10/02 10:08:55;;;;;;;1.73;0.80;;;;;;;13.93;85.93;100924.41;4182791;28;20071;-59
2022/10/02 10:11:18;;;;;;;1.00;0.60;;;;;;;13.96;86.12;100926.19;4164613;28;20389;-59
2022/10/02 10:14:13;;;;;;;2.80;0.88;;;;;;;13.98;85.41;100931.41;4181258;28;20040;-59
2022/10/02 10:16:43;;;;;;;1.20;0.85;;;;;;;13.93;85.72;100941.81;4177376;28;20052;-59
2022/10/02 10:19:21;;;;;;;1.00;0.90;;;;;;;13.87;86.33;100950.50;4182101;28;20075;-59
2022/10/02 10:22:04;;;;;;;2.55;1.00;;;;;;;13.88;86.36;100953.97;4182014;28;20037;-59
2022/10/02 10:24:44;;;;;;;1.08;0.82;;;;;;;13.84;86.40;100936.53;4181073;28;20041;-59
2022/10/02 10:27:16;;;;;;;5.25;1.55;;;;;;;13.93;86.60;100939.19;4181820;28;20111;-59